Main page
METAR-TAF:

METAR-TAF

Airports :

Oberpfaffenhofen, Germany

latitude: 48-05N, longitude: 011-17E, elevation: 600 m

Current weather observation

The report was made 5 hours and 9 minutes ago, at 17:50 UTC
Wind 8 kt from the East
Temperature -1°C
Humidity 86%
Pressure 1007 hPa
Visibility: 7000 m
Overcast at a height of 900 ft

METAR: EDMO 191750Z 08008KT 7000 OVC009 M01/M03 Q1007

Time: 23:59 (22:59 UTC)

Forecast

The report was made 5 hours and 59 minutes ago, at 17:00 UTC
Forecast valid from 19 at 18 UTC to 20 at 03 UTC
Wind 10 kt from the East/Northeast
Visibility: 8000 m
Broken clouds at a height of 1000 ft
Becoming
from 19 at 18 UTC to 19 at 20 UTC
Broken clouds at a height of 800 ft

TAF: EDMO 191700Z 1918/2003 07010KT 8000 BKN010 BECMG 1918/1920 BKN008

Weather observations and forecasts of more than 4000 airports (METAR and TAF reports).

The available stations are represented by yellow and red dots on the map.

Hover mouse over dot to see the name of the station.

Then click to see weather observations and forecasts.

To change the map : click on the green buttons with a black cross to zoom in, on the green button with a dash to zoom out, or on the green arrows for adjacent maps.


METAR-TAF: